KCAD/CAD METAR and TAF weather

Enter ICAO airport designator
Station Type Date Time Source
KCAD METAR 2021/01/27 13:55 UTC NOAA

KCAD 271355Z AUTO 32004KT 10SM OVC029 M07/M10 A3022 RMK AO2 T10701100


Station Type Date Time Source
KCAD Decoded METAR 2021/01/27 13:55 UTC NOAA

Cadillac / Wexford County, MI, United States (KCAD) 44-17N 085-25W
Jan 27, 2021 - 08:55 AM EST / 2021.01.27 1355 UTC
Wind: from the NW (320 degrees) at 5 MPH (4 KT):0
Visibility: 10 mile(s):0
Sky conditions: overcast
Temperature: 19.4 F (-7.0 C)
Windchill: 12 F (-11 C):1
Dew Point: 14.0 F (-10.0 C)
Relative Humidity: 79%
Pressure (altimeter): 30.22 in. Hg (1023 hPa)
ob: KCAD 271355Z AUTO 32004KT 10SM OVC029 M07/M10 A3022 RMK AO2 T10701100
cycle: 14

Station Type Date Time Source
KCAD TAF UTC NOAA

Error!

Example: see airport list